createdAt,value
2018-06-18T00:00:37.517Z,63.60
2018-06-18T00:03:10.628Z,63.60
2018-06-18T00:05:43.744Z,63.60
2018-06-18T00:08:16.832Z,63.60
2018-06-18T00:10:49.884Z,63.60
2018-06-18T00:13:23.142Z,63.60
2018-06-18T00:15:56.226Z,63.80
2018-06-18T00:18:29.508Z,63.90
2018-06-18T00:21:02.580Z,63.80
2018-06-18T00:23:35.817Z,64.20
2018-06-18T00:26:09.127Z,64.00
2018-06-18T00:28:42.271Z,64.10
2018-06-18T00:31:15.506Z,64.00
2018-06-18T00:33:48.570Z,64.10
2018-06-18T00:36:21.656Z,64.40
2018-06-18T00:38:54.722Z,64.60
2018-06-18T00:41:27.873Z,65.60
2018-06-18T00:44:00.911Z,65.30
2018-06-18T00:46:34.177Z,65.10
2018-06-18T00:49:07.227Z,65.40
2018-06-18T00:51:40.289Z,65.50
2018-06-18T00:54:13.356Z,66.00
2018-06-18T00:56:46.664Z,66.00
2018-06-18T00:59:20.650Z,65.80
2018-06-18T01:01:53.900Z,66.10
2018-06-18T01:04:26.932Z,66.00
2018-06-18T01:07:00.267Z,66.20
2018-06-18T01:09:33.373Z,66.20
2018-06-18T01:12:06.583Z,66.20
2018-06-18T01:14:39.895Z,66.30
2018-06-18T01:17:12.972Z,66.90
2018-06-18T01:19:46.044Z,66.50
2018-06-18T01:22:20.246Z,66.90
2018-06-18T01:25:00.286Z,67.70
2018-06-18T01:27:33.354Z,66.80
2018-06-18T01:30:06.487Z,66.50
2018-06-18T01:32:39.535Z,66.90
2018-06-18T01:35:12.659Z,66.80
2018-06-18T01:37:45.794Z,66.80
2018-06-18T01:40:18.870Z,66.80
2018-06-18T01:42:52.064Z,67.10
2018-06-18T01:45:25.089Z,66.80
2018-06-18T01:47:59.191Z,67.00
2018-06-18T01:50:32.531Z,67.20
2018-06-18T01:53:05.752Z,67.20
2018-06-18T01:55:38.815Z,67.40
2018-06-18T01:58:11.870Z,67.70
2018-06-18T02:00:44.946Z,68.00
2018-06-18T02:03:18.112Z,68.00
2018-06-18T02:05:51.414Z,68.00
2018-06-18T02:08:24.675Z,68.20
2018-06-18T02:10:57.873Z,68.10
2018-06-18T02:13:31.055Z,68.00
2018-06-18T02:16:04.203Z,68.10
2018-06-18T02:18:37.429Z,68.20
2018-06-18T02:21:10.554Z,68.20
2018-06-18T02:23:43.676Z,68.70
2018-06-18T02:26:16.732Z,69.10
2018-06-18T02:28:55.120Z,68.60
2018-06-18T02:31:33.721Z,68.60
2018-06-18T02:34:12.291Z,68.70
2018-06-18T02:36:50.967Z,68.90
2018-06-18T02:39:24.386Z,69.00
2018-06-18T02:41:57.423Z,68.80
2018-06-18T02:44:30.515Z,68.90
2018-06-18T02:47:03.687Z,69.00
2018-06-18T02:49:36.747Z,68.90
2018-06-18T02:52:09.790Z,68.90
2018-06-18T02:54:42.859Z,68.60
2018-06-18T02:57:16.885Z,69.40
2018-06-18T02:59:50.171Z,69.80
2018-06-18T03:02:23.366Z,70.30
2018-06-18T03:04:56.430Z,69.70
2018-06-18T03:07:29.597Z,69.70
2018-06-18T03:12:35.516Z,69.50
2018-06-18T03:15:08.547Z,69.60
2018-06-18T03:17:41.581Z,69.70
2018-06-18T03:20:19.998Z,69.80
2018-06-18T03:25:03.057Z,70.00
2018-06-18T03:27:41.632Z,70.30
2018-06-18T03:30:14.700Z,70.70
2018-06-18T03:32:48.838Z,71.00
2018-06-18T03:35:21.872Z,70.70
2018-06-18T03:37:55.871Z,70.70
2018-06-18T03:40:28.900Z,70.50
2018-06-18T03:43:01.982Z,70.80
2018-06-18T03:45:35.122Z,71.10
2018-06-18T03:48:10.973Z,71.00
2018-06-18T03:50:44.076Z,71.10
2018-06-18T03:53:17.189Z,71.50
2018-06-18T03:55:58.188Z,71.40
2018-06-18T03:58:31.270Z,71.40
2018-06-18T04:01:38.212Z,71.60
2018-06-18T04:04:16.679Z,71.70
2018-06-18T04:06:55.138Z,71.80
2018-06-18T04:09:33.555Z,71.90
2018-06-18T04:12:09.051Z,72.00
2018-06-18T04:14:42.095Z,72.20
2018-06-18T04:17:15.237Z,72.30
2018-06-18T04:19:48.455Z,72.50
2018-06-18T04:22:21.572Z,72.40
2018-06-18T04:24:54.666Z,72.50
2018-06-18T04:27:27.718Z,72.60
2018-06-18T04:30:00.887Z,72.50
2018-06-18T04:32:34.010Z,72.40
2018-06-18T04:35:08.654Z,73.60
2018-06-18T04:37:41.850Z,73.80
2018-06-18T04:40:15.025Z,74.50
2018-06-18T04:42:53.590Z,74.50
2018-06-18T04:45:32.142Z,77.50
2018-06-18T04:48:10.483Z,77.80
2018-06-18T04:50:48.862Z,78.90
2018-06-18T04:53:21.940Z,78.60
2018-06-18T04:55:55.224Z,80.60
2018-06-18T04:58:28.289Z,78.50
2018-06-18T05:01:05.638Z,77.90
2018-06-18T05:03:39.607Z,78.70
2018-06-18T05:06:12.787Z,79.90
2018-06-18T05:10:52.774Z,80.50
2018-06-18T05:13:25.874Z,80.90
2018-06-18T05:15:58.910Z,81.70
2018-06-18T05:18:31.966Z,81.70
2018-06-18T05:21:05.110Z,82.40
2018-06-18T05:23:38.178Z,83.10
2018-06-18T05:26:11.208Z,82.90
2018-06-18T05:28:44.264Z,82.30
2018-06-18T05:31:17.276Z,82.00
2018-06-18T05:33:50.506Z,81.40
2018-06-18T05:36:23.692Z,81.00
2018-06-18T05:38:56.862Z,80.80
2018-06-18T05:41:29.880Z,80.50
2018-06-18T05:44:02.917Z,80.60
2018-06-18T05:46:36.071Z,80.50
2018-06-18T05:49:09.083Z,80.30
2018-06-18T05:51:42.243Z,80.00
2018-06-18T05:54:15.274Z,80.00
2018-06-18T05:56:48.310Z,79.90
2018-06-18T05:59:21.798Z,80.00
2018-06-18T06:01:55.185Z,78.60
2018-06-18T06:04:28.671Z,79.10
2018-06-18T06:07:01.780Z,78.10
2018-06-18T06:09:35.064Z,78.20
2018-06-18T06:12:08.928Z,77.70
2018-06-18T06:14:42.086Z,77.40
2018-06-18T06:17:15.224Z,76.10
2018-06-18T06:19:48.478Z,77.00
2018-06-18T06:22:21.603Z,75.90
2018-06-18T06:27:27.507Z,75.00
2018-06-18T06:30:00.578Z,74.80
2018-06-18T06:32:33.787Z,72.90
2018-06-18T06:35:16.269Z,71.60
2018-06-18T06:37:49.338Z,70.50
2018-06-18T06:40:22.488Z,72.50
2018-06-18T06:42:55.619Z,73.40
2018-06-18T06:45:28.875Z,73.40
2018-06-18T06:48:01.914Z,72.80
2018-06-18T06:50:34.986Z,71.60
2018-06-18T06:53:08.119Z,71.40
2018-06-18T06:55:41.227Z,71.40
2018-06-18T06:58:14.470Z,71.20
2018-06-18T07:00:47.733Z,69.50
2018-06-18T07:03:20.797Z,70.50
2018-06-18T07:05:53.956Z,69.90
2018-06-18T07:08:27.089Z,70.80
2018-06-18T07:11:00.175Z,72.10
2018-06-18T07:13:33.453Z,71.10
2018-06-18T07:16:06.751Z,69.10
2018-06-18T07:18:40.040Z,68.20
2018-06-18T07:21:13.112Z,70.20
2018-06-18T07:23:46.210Z,69.60
2018-06-18T07:28:52.330Z,69.30
2018-06-18T07:31:25.509Z,66.60
2018-06-18T07:33:58.690Z,68.80
2018-06-18T07:36:31.785Z,69.60
2018-06-18T07:39:06.475Z,70.00
2018-06-18T07:41:39.532Z,70.00
2018-06-18T07:44:12.721Z,70.10
2018-06-18T07:46:45.836Z,69.60
2018-06-18T07:49:18.945Z,67.90
2018-06-18T07:51:52.256Z,68.40
2018-06-18T07:54:25.252Z,68.90
2018-06-18T07:56:58.419Z,66.90
2018-06-18T07:59:31.523Z,69.40
2018-06-18T08:02:04.727Z,68.50
2018-06-18T08:04:37.914Z,65.60
2018-06-18T08:09:44.105Z,67.30
2018-06-18T08:12:17.379Z,66.00
2018-06-18T08:14:50.579Z,64.60
2018-06-18T08:17:23.815Z,67.50
2018-06-18T08:19:56.953Z,66.40
2018-06-18T08:22:30.066Z,64.00
2018-06-18T08:25:03.179Z,66.00
2018-06-18T08:27:36.382Z,67.20
2018-06-18T08:30:09.590Z,63.40
2018-06-18T08:32:42.855Z,63.80
2018-06-18T08:35:16.239Z,62.40
2018-06-18T08:37:49.412Z,63.80
2018-06-18T08:40:22.437Z,65.50
2018-06-18T08:42:55.539Z,64.50
2018-06-18T08:45:28.650Z,65.40
2018-06-18T08:48:01.787Z,67.70
2018-06-18T08:50:40.196Z,66.50
2018-06-18T08:53:18.686Z,65.60
2018-06-18T08:58:35.822Z,64.40
2018-06-18T09:01:12.786Z,64.80
2018-06-18T09:03:49.915Z,62.30
2018-06-18T09:06:22.973Z,62.90
2018-06-18T09:08:57.502Z,62.90
2018-06-18T09:11:30.619Z,61.70
2018-06-18T09:14:03.763Z,62.00
2018-06-18T09:16:36.897Z,62.20
2018-06-18T09:19:09.978Z,63.40
2018-06-18T09:21:43.278Z,63.00
2018-06-18T09:24:16.663Z,61.00
2018-06-18T09:26:52.263Z,62.40
2018-06-18T09:29:25.313Z,62.50
2018-06-18T09:31:58.400Z,61.80
2018-06-18T09:34:31.434Z,61.00
2018-06-18T09:37:04.768Z,60.70
2018-06-18T09:39:37.903Z,60.60
2018-06-18T09:42:10.961Z,60.40
2018-06-18T09:44:44.148Z,60.60
2018-06-18T09:47:17.226Z,61.60
2018-06-18T09:49:55.792Z,60.50
2018-06-18T09:52:34.267Z,61.00
2018-06-18T09:55:12.872Z,60.00
2018-06-18T09:57:51.261Z,58.80
2018-06-18T10:01:07.031Z,57.80
2018-06-18T10:03:40.128Z,57.10
2018-06-18T10:06:13.378Z,57.90
2018-06-18T10:08:46.594Z,57.40
2018-06-18T10:11:19.526Z,59.20
2018-06-18T10:13:52.662Z,59.00
2018-06-18T10:16:25.746Z,59.70
2018-06-18T10:18:59.213Z,56.90
2018-06-18T10:21:32.336Z,58.70
2018-06-18T10:24:06.398Z,55.10
2018-06-18T10:26:39.490Z,54.20
2018-06-18T10:29:12.611Z,53.20
2018-06-18T10:31:45.645Z,57.90
2018-06-18T10:34:24.353Z,56.30
2018-06-18T10:37:02.879Z,54.80
2018-06-18T10:39:41.410Z,55.70
2018-06-18T10:42:20.290Z,54.60
2018-06-18T10:44:53.637Z,52.20
2018-06-18T10:47:26.706Z,54.00
2018-06-18T10:49:59.937Z,52.80
2018-06-18T10:52:32.966Z,53.70
2018-06-18T10:55:06.042Z,53.60
2018-06-18T10:57:39.784Z,55.90
2018-06-18T11:00:17.147Z,54.50
2018-06-18T11:02:50.438Z,50.90
2018-06-18T11:07:31.281Z,50.20
2018-06-18T11:10:04.314Z,52.50
2018-06-18T11:12:37.425Z,51.80
2018-06-18T11:15:10.500Z,50.60
2018-06-18T11:17:49.188Z,54.10
2018-06-18T11:20:27.619Z,54.60
2018-06-18T11:23:06.241Z,51.80
2018-06-18T11:25:44.526Z,50.50
2018-06-18T11:28:17.563Z,52.20
2018-06-18T11:30:50.588Z,51.70
2018-06-18T11:33:23.662Z,50.20
2018-06-18T11:35:56.686Z,53.40
2018-06-18T11:38:29.791Z,50.80
2018-06-18T11:41:02.866Z,50.10
2018-06-18T11:43:35.979Z,50.00
2018-06-18T11:46:09.030Z,51.20
2018-06-18T11:48:42.094Z,49.50
2018-06-18T11:51:15.178Z,50.80
2018-06-18T11:53:48.260Z,51.00
2018-06-18T11:56:21.408Z,51.70
2018-06-18T11:59:00.049Z,51.70
2018-06-18T12:01:38.520Z,50.50
2018-06-18T12:04:17.004Z,48.30
2018-06-18T12:06:55.613Z,47.80
2018-06-18T12:12:05.658Z,49.00
2018-06-18T12:14:38.773Z,48.90
2018-06-18T12:17:11.824Z,45.80
2018-06-18T12:19:44.867Z,45.10
2018-06-18T12:22:18.391Z,46.80
2018-06-18T12:24:51.539Z,43.00
2018-06-18T12:27:27.468Z,43.20
2018-06-18T12:30:00.525Z,48.00
2018-06-18T12:32:33.583Z,46.00
2018-06-18T12:35:06.624Z,47.80
2018-06-18T12:37:39.740Z,47.70
2018-06-18T12:40:12.877Z,48.20
2018-06-18T12:42:46.014Z,48.90
2018-06-18T12:45:25.920Z,48.20
2018-06-18T12:48:04.514Z,48.60
2018-06-18T12:50:43.091Z,49.00
2018-06-18T12:53:21.702Z,49.90
2018-06-18T12:56:00.187Z,49.40
2018-06-18T12:58:33.361Z,48.00
2018-06-18T13:03:39.870Z,49.40
2018-06-18T13:06:12.928Z,49.90
2018-06-18T13:08:46.105Z,48.90
2018-06-18T13:11:19.163Z,50.60
2018-06-18T13:13:52.222Z,48.40
2018-06-18T13:16:25.357Z,48.50
2018-06-18T13:19:00.887Z,48.70
2018-06-18T13:21:33.962Z,47.90
2018-06-18T13:24:07.050Z,48.80
2018-06-18T13:26:40.108Z,47.30
2018-06-18T13:29:13.188Z,47.10
2018-06-18T13:31:46.217Z,48.20
2018-06-18T13:34:19.259Z,47.50
2018-06-18T13:36:56.621Z,49.30
2018-06-18T13:39:35.083Z,47.30
2018-06-18T13:44:20.606Z,48.20
2018-06-18T13:46:59.139Z,47.60
2018-06-18T13:49:37.717Z,49.00
2018-06-18T13:52:10.790Z,50.60
2018-06-18T13:54:43.847Z,48.00
2018-06-18T13:57:16.863Z,48.80
2018-06-18T13:59:50.081Z,49.40
2018-06-18T14:04:55.986Z,46.30
2018-06-18T14:07:29.000Z,46.80
2018-06-18T14:10:01.989Z,46.20
2018-06-18T14:12:34.969Z,47.10
2018-06-18T14:15:07.973Z,45.80
2018-06-18T14:17:41.001Z,45.80
2018-06-18T14:20:19.457Z,46.80
2018-06-18T14:22:53.205Z,47.00
2018-06-18T14:25:26.222Z,46.20
2018-06-18T14:27:59.563Z,46.90
2018-06-18T14:30:38.141Z,46.40
2018-06-18T14:33:16.804Z,45.30
2018-06-18T14:35:55.237Z,46.90
2018-06-18T14:38:33.651Z,45.80
2018-06-18T14:41:07.650Z,46.80
2018-06-18T14:43:40.710Z,46.60
2018-06-18T14:46:13.915Z,47.00
2018-06-18T14:48:47.075Z,47.60
2018-06-18T14:51:20.171Z,48.40
2018-06-18T14:53:53.210Z,47.20
2018-06-18T14:56:31.036Z,47.40
2018-06-18T14:59:13.736Z,47.70
2018-06-18T15:01:46.851Z,48.00
2018-06-18T15:04:19.902Z,49.00
2018-06-18T15:06:52.935Z,48.80
2018-06-18T15:09:26.170Z,47.90
2018-06-18T15:11:59.050Z,48.10
2018-06-18T15:14:32.151Z,48.40
2018-06-18T15:17:05.131Z,47.50
2018-06-18T15:19:38.156Z,49.30
2018-06-18T15:22:11.205Z,49.20
2018-06-18T15:25:03.399Z,48.90
2018-06-18T15:27:36.434Z,50.60
2018-06-18T15:30:09.613Z,49.40
2018-06-18T15:32:42.672Z,49.40
2018-06-18T15:35:15.714Z,49.50
2018-06-18T15:37:48.748Z,49.60
2018-06-18T15:40:21.913Z,49.50
2018-06-18T15:42:54.966Z,49.70
2018-06-18T15:45:28.150Z,49.80
2018-06-18T15:48:01.201Z,50.00
2018-06-18T15:50:34.303Z,50.40
2018-06-18T15:53:07.347Z,50.70
2018-06-18T15:55:40.413Z,50.20
2018-06-18T15:58:13.523Z,50.70
2018-06-18T16:00:46.634Z,50.20
2018-06-18T16:03:19.786Z,50.60
2018-06-18T16:05:52.877Z,50.80
2018-06-18T16:08:25.938Z,50.30
2018-06-18T16:10:59.029Z,50.60
2018-06-18T16:13:32.173Z,50.80
2018-06-18T16:16:05.268Z,50.20
2018-06-18T16:18:38.318Z,51.00
2018-06-18T16:21:11.414Z,51.50
2018-06-18T16:23:44.519Z,51.20
2018-06-18T16:26:17.617Z,50.10
2018-06-18T16:28:50.717Z,49.90
2018-06-18T16:31:23.844Z,50.70
2018-06-18T16:33:56.904Z,50.40
2018-06-18T16:36:32.064Z,51.30
2018-06-18T16:39:08.564Z,50.40
2018-06-18T16:41:44.648Z,51.00
2018-06-18T16:44:17.685Z,50.60
2018-06-18T16:46:50.755Z,50.90
2018-06-18T16:49:23.772Z,51.00
2018-06-18T16:51:56.846Z,51.40
2018-06-18T16:54:29.913Z,50.90
2018-06-18T16:57:02.983Z,51.20
2018-06-18T16:59:36.064Z,51.20
2018-06-18T17:02:09.133Z,51.80
2018-06-18T17:04:42.189Z,52.30
2018-06-18T17:07:15.283Z,52.20
2018-06-18T17:09:48.444Z,52.20
2018-06-18T17:12:21.591Z,53.00
2018-06-18T17:14:54.653Z,52.20
2018-06-18T17:17:27.772Z,53.10
2018-06-18T17:20:00.849Z,53.00
2018-06-18T17:22:33.941Z,52.90
2018-06-18T17:27:40.003Z,54.30
2018-06-18T17:30:13.064Z,53.60
2018-06-18T17:32:46.111Z,54.00
2018-06-18T17:35:19.219Z,54.40
2018-06-18T17:37:52.289Z,54.50
2018-06-18T17:40:25.326Z,54.50
2018-06-18T17:42:58.467Z,55.20
2018-06-18T17:45:31.533Z,55.30
2018-06-18T17:48:04.744Z,55.40
2018-06-18T17:50:37.728Z,55.90
2018-06-18T17:53:10.801Z,56.00
2018-06-18T17:55:43.903Z,55.70
2018-06-18T17:58:16.960Z,56.40
2018-06-18T18:00:50.069Z,55.40
2018-06-18T18:03:23.122Z,55.60
2018-06-18T18:05:56.194Z,56.10
2018-06-18T18:11:02.107Z,56.40
2018-06-18T18:13:35.227Z,56.40
2018-06-18T18:16:08.193Z,57.20
2018-06-18T18:18:41.332Z,56.80
2018-06-18T18:21:14.335Z,57.80
2018-06-18T18:23:47.390Z,57.80
2018-06-18T18:26:20.496Z,57.40
2018-06-18T18:28:53.754Z,57.60
2018-06-18T18:31:26.800Z,57.90
2018-06-18T18:33:59.911Z,58.20
2018-06-18T18:36:32.945Z,58.30
2018-06-18T18:39:07.903Z,57.60
2018-06-18T18:41:40.931Z,58.10
2018-06-18T18:44:13.963Z,59.00
2018-06-18T18:46:47.026Z,59.00
2018-06-18T18:49:20.054Z,58.70
2018-06-18T18:51:53.165Z,59.30
2018-06-18T18:54:51.095Z,59.10
2018-06-18T18:57:48.554Z,59.30
2018-06-18T19:00:21.670Z,60.20
2018-06-18T19:02:54.684Z,59.80
2018-06-18T19:05:27.789Z,60.40
2018-06-18T19:08:00.828Z,60.40
2018-06-18T19:10:35.979Z,61.30
2018-06-18T19:13:12.738Z,60.40
2018-06-18T19:15:46.081Z,61.20
2018-06-18T19:18:19.114Z,62.10
2018-06-18T19:20:55.051Z,62.30
2018-06-18T19:23:28.243Z,61.40
2018-06-18T19:26:01.292Z,62.10
2018-06-18T19:28:35.231Z,62.20
2018-06-18T19:31:13.946Z,63.90
2018-06-18T19:33:57.044Z,62.30
2018-06-18T19:36:30.158Z,62.50
2018-06-18T19:39:03.512Z,62.70
2018-06-18T19:41:36.692Z,63.00
2018-06-18T19:44:09.789Z,63.00
2018-06-18T19:46:54.425Z,63.00
2018-06-18T19:49:27.728Z,63.10
2018-06-18T19:52:00.748Z,63.80
2018-06-18T19:54:37.039Z,63.20
2018-06-18T19:57:10.069Z,63.00
2018-06-18T19:59:43.131Z,63.00
2018-06-18T20:02:16.246Z,63.20
2018-06-18T20:04:49.339Z,63.80
2018-06-18T20:07:23.686Z,63.70
2018-06-18T20:09:56.686Z,64.40
2018-06-18T20:12:29.770Z,63.60
2018-06-18T20:15:02.829Z,64.00
2018-06-18T20:17:35.905Z,63.90
2018-06-18T20:20:09.168Z,64.70
2018-06-18T20:22:42.299Z,64.60
2018-06-18T20:25:17.410Z,64.10
2018-06-18T20:27:50.472Z,64.70
2018-06-18T20:30:23.477Z,65.60
2018-06-18T20:32:56.522Z,64.70
2018-06-18T20:35:33.783Z,64.80
2018-06-18T20:38:06.866Z,65.50
2018-06-18T20:40:39.890Z,64.90
2018-06-18T20:43:12.945Z,65.00
2018-06-18T20:45:45.978Z,65.30
2018-06-18T20:48:19.017Z,65.30
2018-06-18T20:50:52.070Z,65.20
2018-06-18T20:53:25.086Z,65.20
2018-06-18T20:55:58.116Z,65.50
2018-06-18T20:58:31.199Z,65.60
2018-06-18T21:01:04.264Z,65.80
2018-06-18T21:03:37.338Z,66.00
2018-06-18T21:06:10.381Z,66.60
2018-06-18T21:08:43.479Z,66.40
2018-06-18T21:11:16.538Z,67.10
2018-06-18T21:13:49.613Z,67.30
2018-06-18T21:16:22.663Z,66.90
2018-06-18T21:18:55.711Z,67.00
2018-06-18T21:21:28.730Z,67.10
2018-06-18T21:24:01.791Z,68.00
2018-06-18T21:26:34.829Z,67.30
2018-06-18T21:29:11.874Z,67.20
2018-06-18T21:31:44.886Z,67.20
2018-06-18T21:34:17.905Z,69.00
2018-06-18T21:36:50.941Z,68.10
2018-06-18T21:39:24.002Z,68.40
2018-06-18T21:41:57.034Z,69.30
2018-06-18T21:44:42.595Z,70.00
2018-06-18T21:47:15.643Z,69.80
2018-06-18T21:49:48.758Z,70.50
2018-06-18T21:52:21.870Z,70.20
2018-06-18T21:54:54.966Z,71.40
2018-06-18T21:57:28.144Z,70.40
2018-06-18T22:00:01.173Z,70.10
2018-06-18T22:02:34.230Z,70.50
2018-06-18T22:05:07.349Z,70.70
2018-06-18T22:07:40.843Z,70.70
2018-06-18T22:10:13.970Z,70.90
2018-06-18T22:12:47.004Z,71.50
2018-06-18T22:15:20.052Z,71.40
2018-06-18T22:17:53.118Z,71.50
2018-06-18T22:20:26.246Z,72.30
2018-06-18T22:22:59.262Z,72.20
2018-06-18T22:25:32.338Z,73.20
2018-06-18T22:28:09.165Z,73.70
2018-06-18T22:30:42.195Z,73.90
2018-06-18T22:33:15.243Z,74.10
2018-06-18T22:35:48.663Z,73.70
2018-06-18T22:38:21.715Z,73.40
2018-06-18T22:40:54.777Z,73.60
2018-06-18T22:43:27.792Z,74.60
2018-06-18T22:46:00.859Z,75.00
2018-06-18T22:48:33.940Z,74.50
2018-06-18T22:51:07.002Z,74.30
2018-06-18T22:53:40.110Z,75.60
2018-06-18T22:56:13.118Z,75.20
2018-06-18T22:58:46.117Z,75.90
2018-06-18T23:01:19.214Z,76.10
2018-06-18T23:03:52.607Z,75.40
2018-06-18T23:06:25.728Z,76.20
2018-06-18T23:09:00.865Z,75.50
2018-06-18T23:11:33.963Z,76.60
2018-06-18T23:14:09.891Z,77.10
2018-06-18T23:16:42.921Z,76.50
2018-06-18T23:19:15.955Z,76.90
2018-06-18T23:21:48.978Z,77.10
2018-06-18T23:24:22.014Z,75.70
2018-06-18T23:26:55.194Z,77.30
2018-06-18T23:29:28.234Z,75.80
2018-06-18T23:32:01.294Z,76.00
2018-06-18T23:34:34.294Z,77.90
2018-06-18T23:37:07.371Z,75.80
2018-06-18T23:39:40.413Z,77.20
2018-06-18T23:42:13.467Z,75.80
2018-06-18T23:44:46.471Z,77.00
2018-06-18T23:47:19.551Z,76.10
2018-06-18T23:49:52.570Z,77.90
2018-06-18T23:52:25.758Z,77.20
2018-06-18T23:54:58.791Z,77.20
2018-06-18T23:57:31.877Z,77.90
